Byram, United Kingdom
Current Conditions -  °F | °C
As of 2:50 PM on Sunday 21 Dec 2014 (Local Time) from EGNM Reporting Station
Light Rain Light Rain  
Wind Chill: 41°   Ceiling: 1100
Heat Index: 48°   Visibility: 6mi
Dew Point: 46°   Wind: 21mph
Humidity: 93%   Direction: 230°SW
Pressure: 29.97"   Gusts: 32mph
Location:  53.72°N, 1.26°W
Report Text: EGNM 211450Z 23018G28KT 210V270 9999 -RADZ FEW009 BKN011 09/08 Q1015
Loading
Personal Weather Stations






























Interactive Weather Map New forecast layout! Learn more

10-Day Weather Forecast

Advertisements
Track Severe Weather on mobile